createdAt,value
2022-07-25T00:00:29.399Z,15.04
2022-07-25T00:05:37.381Z,15.06
2022-07-25T00:10:44.551Z,14.96
2022-07-25T00:15:46.935Z,14.85
2022-07-25T00:20:49.189Z,14.75
2022-07-25T00:25:51.170Z,14.63
2022-07-25T00:30:53.108Z,14.52
2022-07-25T00:36:01.403Z,14.44
2022-07-25T00:41:03.945Z,14.36
2022-07-25T00:46:06.155Z,14.26
2022-07-25T00:51:11.064Z,14.17
2022-07-25T00:56:13.289Z,14.09
2022-07-25T01:01:15.763Z,14.04
2022-07-25T01:06:30.563Z,14.07
2022-07-25T01:11:33.157Z,14.06
2022-07-25T01:16:35.646Z,14.02
2022-07-25T01:21:44.489Z,14.01
2022-07-25T01:26:46.334Z,14.00
2022-07-25T01:31:48.377Z,13.97
2022-07-25T01:36:50.220Z,13.93
2022-07-25T01:41:52.305Z,13.93
2022-07-25T01:46:54.204Z,13.93
2022-07-25T01:51:56.197Z,13.96
2022-07-25T01:56:58.202Z,13.99
2022-07-25T02:02:01.095Z,14.00
2022-07-25T02:07:03.367Z,13.98
2022-07-25T02:12:07.532Z,13.96
2022-07-25T02:17:09.478Z,13.91
2022-07-25T02:22:11.623Z,13.85
2022-07-25T02:27:13.810Z,13.85
2022-07-25T02:32:16.097Z,13.85
2022-07-25T02:37:17.891Z,13.83
2022-07-25T02:42:19.853Z,13.85
2022-07-25T02:47:22.034Z,13.86
2022-07-25T02:52:23.957Z,13.84
2022-07-25T02:57:25.787Z,13.84
2022-07-25T03:02:32.684Z,13.77
2022-07-25T03:07:34.976Z,13.72
2022-07-25T03:12:36.950Z,13.73
2022-07-25T03:17:39.159Z,13.80
2022-07-25T03:22:41.627Z,13.87
2022-07-25T03:27:43.446Z,13.92
2022-07-25T03:32:45.386Z,14.03
2022-07-25T03:38:04.053Z,14.24
2022-07-25T03:43:17.398Z,14.60
2022-07-25T03:48:19.379Z,15.51
2022-07-25T03:53:21.358Z,16.35
2022-07-25T03:58:23.333Z,16.96
2022-07-25T04:03:38.929Z,17.61
2022-07-25T04:08:45.523Z,18.30
2022-07-25T04:13:47.502Z,19.94
2022-07-25T04:19:03.297Z,21.74
2022-07-25T04:24:08.622Z,23.40
2022-07-25T04:29:10.956Z,24.82
2022-07-25T04:34:13.239Z,25.87
2022-07-25T04:39:15.426Z,26.83
2022-07-25T04:44:17.711Z,28.14
2022-07-25T04:49:19.883Z,29.27
2022-07-25T04:54:26.891Z,29.87
2022-07-25T04:59:28.911Z,30.34
2022-07-25T05:04:30.852Z,30.98
2022-07-25T05:09:33.554Z,31.20
2022-07-25T05:14:35.527Z,31.53
2022-07-25T05:19:37.834Z,32.15
2022-07-25T05:24:40.001Z,32.31
2022-07-25T05:29:41.905Z,32.33
2022-07-25T05:34:44.066Z,31.23
2022-07-25T05:39:45.979Z,29.59
2022-07-25T05:44:47.817Z,28.12
2022-07-25T05:49:49.907Z,27.23
2022-07-25T05:54:52.268Z,26.75
2022-07-25T05:59:54.372Z,26.14
2022-07-25T06:04:56.460Z,26.07
2022-07-25T06:09:58.365Z,27.44
2022-07-25T06:15:00.924Z,28.37
2022-07-25T06:20:05.059Z,29.04
2022-07-25T06:25:16.964Z,30.05
2022-07-25T06:30:25.360Z,30.35
2022-07-25T06:35:27.500Z,30.81
2022-07-25T06:40:37.421Z,31.25
2022-07-25T06:45:39.433Z,31.22
2022-07-25T06:50:41.408Z,30.84
2022-07-25T06:55:43.386Z,30.27
2022-07-25T07:00:45.178Z,29.51
2022-07-25T07:05:47.859Z,28.78
2022-07-25T07:11:10.017Z,28.36
2022-07-25T07:16:12.263Z,28.24
2022-07-25T07:21:21.026Z,28.28
2022-07-25T07:26:37.997Z,28.63
2022-07-25T07:31:49.535Z,29.09
2022-07-25T07:36:52.342Z,29.43
2022-07-25T07:41:54.351Z,29.72
2022-07-25T07:46:56.366Z,30.00
2022-07-25T07:51:58.415Z,30.00
2022-07-25T07:57:00.292Z,30.10
2022-07-25T08:02:02.537Z,30.36
2022-07-25T08:07:04.663Z,30.50
2022-07-25T08:12:06.615Z,30.63
2022-07-25T08:17:08.744Z,30.80
2022-07-25T08:22:15.109Z,30.79
2022-07-25T08:27:16.986Z,30.84
2022-07-25T08:32:18.964Z,30.93
2022-07-25T08:37:20.949Z,31.20
2022-07-25T08:42:23.024Z,31.62
2022-07-25T08:47:25.034Z,31.95
2022-07-25T08:52:27.396Z,32.34
2022-07-25T08:57:29.297Z,32.49
2022-07-25T09:02:31.235Z,32.37
2022-07-25T09:07:34.661Z,32.67
2022-07-25T09:12:36.470Z,32.84
2022-07-25T09:17:49.789Z,32.81
2022-07-25T09:22:51.772Z,32.35
2022-07-25T09:27:53.741Z,32.06
2022-07-25T09:33:02.141Z,32.42
2022-07-25T09:38:11.596Z,32.91
2022-07-25T09:43:13.713Z,33.22
2022-07-25T09:48:15.900Z,33.18
2022-07-25T09:53:18.087Z,33.24
2022-07-25T09:58:27.870Z,33.40
2022-07-25T10:03:45.434Z,33.73
2022-07-25T10:08:48.495Z,33.66
2022-07-25T10:13:50.680Z,33.46
2022-07-25T10:18:53.715Z,33.71
2022-07-25T10:24:10.478Z,33.84
2022-07-25T10:29:14.136Z,34.00
2022-07-25T10:34:16.216Z,34.07
2022-07-25T10:39:19.724Z,34.24
2022-07-25T10:44:22.016Z,34.08
2022-07-25T10:49:32.233Z,34.06
2022-07-25T10:54:38.982Z,34.49
2022-07-25T10:59:41.163Z,34.60
2022-07-25T11:04:47.467Z,34.78
2022-07-25T11:09:59.776Z,35.01
2022-07-25T11:15:05.870Z,34.85
2022-07-25T11:20:09.308Z,34.97
2022-07-25T11:25:13.969Z,35.05
2022-07-25T11:30:19.363Z,35.22
2022-07-25T11:35:23.282Z,35.03
2022-07-25T11:40:30.596Z,35.07
2022-07-25T11:45:33.989Z,35.36
2022-07-25T11:50:37.417Z,35.65
2022-07-25T11:55:42.573Z,35.84
2022-07-25T12:00:49.238Z,35.90
2022-07-25T12:05:51.487Z,35.68
2022-07-25T12:10:55.798Z,35.26
2022-07-25T12:16:01.240Z,35.47
2022-07-25T12:21:03.225Z,35.74
2022-07-25T12:26:05.432Z,35.96
2022-07-25T12:31:07.526Z,36.15
2022-07-25T12:36:23.848Z,35.96
2022-07-25T12:41:40.325Z,35.62
2022-07-25T12:46:48.806Z,35.70
2022-07-25T12:51:54.728Z,36.24
2022-07-25T12:57:00.130Z,36.70
2022-07-25T13:02:02.360Z,36.81
2022-07-25T13:07:04.998Z,36.94
2022-07-25T13:12:07.367Z,36.64
2022-07-25T13:17:09.338Z,36.33
2022-07-25T13:22:11.170Z,36.40
2022-07-25T13:27:20.394Z,36.62
2022-07-25T13:32:23.168Z,36.77
2022-07-25T13:37:25.246Z,37.12
2022-07-25T13:42:27.224Z,37.54
2022-07-25T13:47:30.703Z,37.78
2022-07-25T13:52:33.032Z,38.05
2022-07-25T13:57:35.549Z,38.11
2022-07-25T14:02:37.980Z,38.28
2022-07-25T14:07:39.923Z,38.49
2022-07-25T14:12:55.029Z,38.09
2022-07-25T14:17:57.777Z,37.73
2022-07-25T14:23:20.062Z,38.17
2022-07-25T14:28:31.249Z,38.42
2022-07-25T14:33:38.024Z,38.23
2022-07-25T14:38:40.206Z,37.87
2022-07-25T14:43:42.594Z,38.26
2022-07-25T14:48:44.543Z,38.36
2022-07-25T14:53:51.275Z,38.49
2022-07-25T14:58:55.193Z,38.91
2022-07-25T15:03:57.375Z,39.35
2022-07-25T15:08:59.175Z,39.56
2022-07-25T15:14:01.126Z,39.50
2022-07-25T15:19:16.524Z,39.61
2022-07-25T15:24:19.527Z,39.36
2022-07-25T15:29:21.325Z,39.20
2022-07-25T15:34:23.278Z,39.07
2022-07-25T15:39:25.270Z,39.11
2022-07-25T15:44:27.242Z,39.50
2022-07-25T15:49:29.307Z,39.90
2022-07-25T15:54:31.334Z,40.02
2022-07-25T15:59:33.176Z,39.85
2022-07-25T16:04:34.958Z,39.92
2022-07-25T16:09:36.831Z,40.17
2022-07-25T16:14:38.633Z,40.56
2022-07-25T16:19:40.589Z,40.97
2022-07-25T16:38:38.690Z,40.88
2022-07-25T16:43:40.980Z,40.63
2022-07-25T16:48:43.233Z,40.34
2022-07-25T17:05:54.160Z,40.95
2022-07-25T17:10:55.517Z,41.18
2022-07-25T17:15:57.070Z,41.13
2022-07-25T17:20:59.479Z,40.91
2022-07-25T17:26:01.043Z,40.65
2022-07-25T17:31:02.591Z,40.48
2022-07-25T17:36:04.697Z,40.13
2022-07-25T17:41:06.376Z,39.74
2022-07-25T17:46:10.537Z,39.39
2022-07-25T17:51:11.798Z,38.96
2022-07-25T17:56:13.064Z,38.55
2022-07-25T18:01:14.574Z,37.89
2022-07-25T18:06:16.576Z,37.14
2022-07-25T18:11:19.372Z,36.38
2022-07-25T18:16:20.875Z,35.37
2022-07-25T18:21:23.153Z,33.95
2022-07-25T18:26:25.554Z,32.29
2022-07-25T18:31:26.973Z,30.91
2022-07-25T18:36:29.177Z,29.76
2022-07-25T18:41:32.078Z,28.82
2022-07-25T18:46:33.791Z,27.99
2022-07-25T18:51:35.211Z,27.28
2022-07-25T18:56:36.789Z,26.68
2022-07-25T19:01:38.207Z,26.18
2022-07-25T19:06:39.749Z,25.72
2022-07-25T19:11:42.399Z,25.32
2022-07-25T19:16:44.353Z,24.98
2022-07-25T19:21:45.760Z,24.67
2022-07-25T19:26:48.763Z,24.39
2022-07-25T19:31:57.809Z,24.13
2022-07-25T19:37:00.607Z,23.85
2022-07-25T19:42:07.093Z,23.59
2022-07-25T19:47:11.831Z,23.37
2022-07-25T19:52:14.225Z,23.18
2022-07-25T19:57:15.627Z,23.03
2022-07-25T20:02:16.867Z,22.88
2022-07-25T20:07:18.405Z,22.73
2022-07-25T20:12:25.831Z,22.64
2022-07-25T20:17:27.299Z,22.54
2022-07-25T20:22:28.875Z,22.46
2022-07-25T20:27:30.340Z,22.39
2022-07-25T20:37:51.806Z,22.22
2022-07-25T20:42:55.038Z,22.10
2022-07-25T20:47:56.894Z,22.02
2022-07-25T20:53:01.540Z,21.94
2022-07-25T20:58:04.334Z,21.89
2022-07-25T21:03:13.486Z,21.84
2022-07-25T21:08:15.394Z,21.78
2022-07-25T21:13:18.467Z,21.74
2022-07-25T21:18:20.142Z,21.70
2022-07-25T21:23:25.908Z,21.65
2022-07-25T21:28:27.384Z,21.58
2022-07-25T21:33:29.050Z,21.51
2022-07-25T21:38:34.998Z,21.45
2022-07-25T21:43:36.700Z,21.40
2022-07-25T21:49:00.130Z,21.34
2022-07-25T21:54:01.482Z,21.27
2022-07-25T21:59:02.905Z,21.20
2022-07-25T22:04:04.688Z,21.12
2022-07-25T22:09:06.576Z,21.03
2022-07-25T22:14:08.741Z,20.93
2022-07-25T22:19:10.488Z,20.82
2022-07-25T22:24:12.076Z,20.73
2022-07-25T22:29:13.562Z,20.68
2022-07-25T22:34:15.017Z,20.65
2022-07-25T22:39:16.596Z,20.61
2022-07-25T22:44:18.070Z,20.57
2022-07-25T22:49:22.852Z,20.53
2022-07-25T22:54:24.453Z,20.48
2022-07-25T22:59:26.081Z,20.41
2022-07-25T23:04:28.100Z,20.34
2022-07-25T23:09:36.322Z,20.28
2022-07-25T23:14:38.442Z,20.22
2022-07-25T23:19:40.114Z,20.17
2022-07-25T23:24:41.690Z,20.10
2022-07-25T23:29:43.182Z,20.01
2022-07-25T23:34:50.544Z,19.93
2022-07-25T23:39:51.811Z,19.84
2022-07-25T23:44:53.292Z,19.69
2022-07-25T23:49:56.604Z,19.51
2022-07-25T23:54:58.068Z,19.37
2022-07-25T23:59:59.407Z,19.23
